Date,TemperatureHighF,TemperatureAvgF,TemperatureLowF,DewpointHighF,DewpointAvgF,DewpointLowF,HumidityHigh,HumidityAvg,HumidityLow,PressureMaxIn,PressureMinIn,WindSpeedMaxMPH,WindSpeedAvgMPH,GustSpeedMaxMPH,PrecipitationSumIn
2013-2-1,31.2,26.4,21.7,18.0,10.9,6.3,72,52,42,30.17,29.66,24,6,25,0.00
2013-2-2,28.2,22.6,15.2,17.7,12.0,7.8,84,65,42,30.24,30.03,18,3,21,0.00
2013-2-3,31.4,23.3,15.5,19.1,16.0,12.9,92,75,50,30.05,29.78,7,1,7,0.00
2013-2-4,30.1,24.1,20.2,19.3,12.6,7.2,89,63,40,29.96,29.78,17,4,22,0.00
2013-2-5,31.6,24.6,19.7,23.8,15.7,11.8,87,69,53,30.02,29.89,7,1,9,0.00
2013-2-6,38.8,29.4,21.2,27.9,18.1,4.4,91,65,35,30.38,29.89,19,3,24,0.00
2013-2-7,30.5,22.8,13.1,15.5,9.6,5.5,85,58,41,30.54,30.36,11,1,11,0.00
2013-2-8,31.7,27.7,24.3,28.8,22.4,13.8,95,81,61,30.37,29.78,19,2,20,0.00
2013-2-9,25.9,21.3,10.9,23.6,14.4,1.6,95,76,50,30.37,29.82,28,7,28,0.00
2013-2-10,30.8,13.9,-4.4,99.9,21.9,-3.6,87,68,39,30.52,30.28,10,1,10,0.09
2013-2-11,42.0,35.2,26.9,39.4,30.6,11.1,96,84,48,30.28,29.65,16,3,17,0.16
2013-2-12,41.2,38.4,35.8,35.6,28.7,23.8,90,68,61,29.95,29.68,18,4,23,0.00
2013-2-13,42.4,36.3,31.3,28.2,24.5,22.8,82,62,49,29.92,29.71,13,2,15,0.00
2013-2-14,42.1,34.1,22.0,28.2,24.9,19.4,92,70,52,29.95,29.71,11,1,12,0.00
2013-2-15,52.5,41.8,32.9,33.9,29.3,25.7,89,62,46,30.01,29.87,16,4,18,0.00
2013-2-16,33.6,30.3,25.9,30.9,21.2,10.3,100,70,50,30.01,29.82,21,4,21,0.01
2013-2-17,26.1,21.7,16.7,12.0,6.4,2.8,61,51,38,29.95,29.67,33,9,33,0.00
2013-2-18,32.9,22.1,12.8,14.1,6.5,1.7,76,52,33,30.20,29.94,20,5,27,0.00
2013-2-19,43.3,31.3,17.9,34.8,24.9,13.1,95,79,51,30.16,29.61,16,3,20,0.12
2013-2-20,34.1,29.6,25.2,31.7,16.9,10.3,91,60,43,29.93,29.66,26,7,29,0.00
2013-2-21,28.6,24.7,21.3,16.8,13.6,11.4,74,62,54,30.37,29.90,20,7,22,0.00
2013-2-22,36.5,29.6,22.1,26.8,21.0,16.5,83,70,58,30.44,30.25,12,2,12,0.00
2013-2-23,37.9,34.9,31.9,36.5,32.1,26.7,96,90,74,30.26,29.86,10,2,11,0.02
2013-2-24,41.2,35.6,33.3,36.6,31.4,25.2,97,85,63,29.98,29.75,16,3,19,0.05
2013-2-25,42.3,35.8,26.8,30.4,27.8,23.8,92,73,57,30.24,29.98,13,2,15,0.00
2013-2-26,45.0,36.6,25.7,33.2,28.3,23.6,95,73,53,30.31,30.02,13,2,16,0.00
2013-2-27,44.2,37.7,32.2,39.9,35.1,27.7,96,91,73,30.03,29.50,16,3,19,0.76
2013-2-28,42.5,38.5,35.7,39.1,36.3,33.3,97,92,83,29.60,29.55,6,1,7,0.13